Fesco Vladimir — 5BSL2 — position and weather

sailwx.info

Track history (hours):
 
Tides and Currents Weather Stations Pressure Air Temp Water Temp Dewpoint Dewpoint Depression Visibility Wind Speed Wind Dir Waves Ship Positions

Fesco Vladimir

Last reported at 2016-May-05 01:21 UTC. Time now 2016-May-05 04:47 UTC.
Position N 55°45' E 015°50'.

Length 184 m; draft 10 m.

Type: Ship (hazmat cat A). MMSI: 209777000.

Date/timePositionNaut miles runAvg speedWind from/ knotsBaromVisibWave heightAir tempDewpointWater temp
2016-May-05 01:21N 55°45' E 015°50'1215.7
2016-May-05 00:33N 55°39' E 015°30'1615.7
2016-May-04 23:34N 55°31' E 015°06'1615.6
2016-May-04 22:34N 55°24' E 014°42'1615.6
2016-May-04 21:34N 55°12' E 014°25'1615.5
2016-May-04 20:34N 54°60' E 014°07'1615.9
2016-May-04 19:33N 54°55' E 013°40'1615.8
2016-May-04 18:33N 54°50' E 013°14'1616.0
2016-May-04 17:33N 54°45' E 012°48'1715.8
2016-May-04 16:30N 54°36' E 012°23'1415.0
2016-May-04 15:33N 54°25' E 012°09'1616.2
2016-May-04 14:34N 54°26' E 011°41'1616.4
2016-May-04 13:34N 54°34' E 011°16'1616.4
2016-May-04 12:33N 54°42' E 010°51'1616.0
2016-May-04 11:34N 54°58' E 010°58'1616.0
2016-May-04 10:34N 55°13' E 011°06'1615.3
2016-May-04 09:32N 55°27' E 010°55'3214.6
2016-May-04 07:21N 55°59' E 011°02'1816.0
2016-May-04 06:13N 56°14' E 011°20'2716.3
2016-May-04 04:33N 56°38' E 011°44'1515.3
2016-May-04 03:33N 56°53' E 011°48'1716.6
2016-May-04 02:34N 57°08' E 011°37'1616.3
2016-May-04 01:33N 57°24' E 011°27'1616.5
2016-May-04 00:33N 57°35' E 011°05'1616.2
2016-May-03 23:34N 57°47' E 010°45'2417.3
2016-May-03 22:10N 57°46' E 010°00'1016.5
2016-May-03 21:33N 57°44' E 009°41'12515.6
2016-May-03 13:32N 56°09' E 007°13'1716.0
2016-May-03 12:30N 55°53' E 007°03'1516.0
2016-May-03 11:33N 55°39' E 006°54'1615.8
2016-May-03 10:33N 55°24' E 006°45'1515.1
2016-May-03 09:33N 55°09' E 006°45'1515.3
2016-May-03 08:33N 54°54' E 006°50'1514.7
2016-May-03 07:34N 54°40' E 006°58'1514.8
2016-May-03 06:33N 54°28' E 007°15'1514.6
2016-May-03 05:34N 54°17' E 007°31'1414.0
2016-May-03 04:34N 54°08' E 007°49'1414.3
2016-May-03 03:34N 54°01' E 008°10'1515.1
2016-May-03 02:33N 53°58' E 008°35'1514.8
2016-May-03 01:34N 53°51' E 008°58'1514.7
2016-May-03 00:33N 53°49' E 009°22'1615.9
2016-May-02 23:34N 53°35' E 009°37'1111.3
2016-May-02 22:33N 53°32' E 009°55'0 0.3
2016-May-02 21:32N 53°32' E 009°55'0 0.0
2016-May-02 20:32N 53°32' E 009°55'0 0.0
2016-May-02 19:32N 53°32' E 009°55'0 0.0
2016-May-02 18:32N 53°32' E 009°55'0 0.0
2016-May-02 17:32N 53°32' E 009°55'0 0.0
2016-May-02 16:32N 53°32' E 009°55'0 0.0
2016-May-02 15:32N 53°32' E 009°55'0 0.0
2016-May-02 14:32N 53°32' E 009°55'0 0.0
2016-May-02 13:32N 53°32' E 009°55'0 0.0
2016-May-02 12:32N 53°32' E 009°55'0 0.0
2016-May-02 11:32N 53°32' E 009°55'0 0.0
2016-May-02 10:32N 53°32' E 009°55'0 0.0
2016-May-02 09:31N 53°32' E 009°55'0 0.0
2016-May-02 08:31N 53°32' E 009°55'0 0.0
2016-May-02 07:31N 53°32' E 009°55'0 0.0
2016-May-02 06:31N 53°32' E 009°55'0 0.0
2016-May-02 05:31N 53°32' E 009°55'1 1.5
2016-May-02 04:33N 53°32' E 009°53'1111.3
2016-May-02 03:34N 53°36' E 009°35'1414.0
2016-May-02 02:33N 53°48' E 009°23'1111.5
2016-May-02 01:33N 53°52' E 009°04'1312.7
2016-May-02 00:34N 53°52' E 008°43'1313.1
2016-May-01 23:33N 53°59' E 008°23'1312.7
2016-May-01 22:33N 53°59' E 008°02'1211.8
2016-May-01 21:33N 53°57' E 007°42'10 9.9
2016-May-01 20:33N 53°55' E 007°26'8 7.9
2016-May-01 19:33N 53°53' E 007°13'8 8.3
2016-May-01 18:33N 53°51' E 006°59'9 8.7
2016-May-01 17:33N 53°49' E 006°45'9 9.1
2016-May-01 16:33N 53°47' E 006°30'9 9.4
2016-May-01 15:33N 53°44' E 006°14'10 9.7
2016-May-01 14:33N 53°41' E 005°59'10 9.8
2016-May-01 13:33N 53°37' E 005°43'1010.0
2016-May-01 12:33N 53°34' E 005°27'1010.1
2016-May-01 11:33N 53°31' E 005°11'1010.0
2016-May-01 10:33N 53°27' E 004°55'9 9.3
2016-May-01 09:32N 53°23' E 004°42'26 8.5
2016-May-01 06:33N 53°00' E 004°23'1111.3
2016-May-01 05:33N 52°50' E 004°14'1111.5
2016-May-01 04:33N 52°40' E 004°05'1111.3
2016-May-01 03:33N 52°30' E 003°55'1111.0
2016-May-01 02:33N 52°20' E 003°52'1111.4
2016-May-01 01:33N 52°08' E 003°55'7 7.1
2016-May-01 00:33N 52°01' E 003°58'6 5.8
2016-Apr-30 23:32N 51°57' E 004°04'0 0.0
2016-Apr-30 22:32N 51°57' E 004°04'0 0.0
2016-Apr-30 21:32N 51°57' E 004°04'0 0.0
2016-Apr-30 20:32N 51°57' E 004°04'0 0.0
2016-Apr-30 19:32N 51°57' E 004°04'0 0.0
2016-Apr-30 18:32N 51°57' E 004°04'0 0.0
2016-Apr-30 17:32N 51°57' E 004°04'0 0.0
2016-Apr-30 16:32N 51°57' E 004°04'0 0.0
2016-Apr-30 15:32N 51°57' E 004°04'0 0.0
2016-Apr-30 14:32N 51°57' E 004°04'0 0.0
2016-Apr-30 13:32N 51°57' E 004°04'0 0.0
2016-Apr-30 12:32N 51°57' E 004°04'0 0.0
2016-Apr-30 11:32N 51°57' E 004°04'0 0.0
2016-Apr-30 10:32N 51°57' E 004°04'0 0.3
2016-Apr-30 09:33N 51°57' E 004°04'1 0.6
2016-Apr-30 08:31N 51°58' E 004°04'0 0.0
2016-Apr-30 07:31N 51°58' E 004°04'1 0.5
2016-Apr-30 06:33N 51°58' E 004°04'1 1.0
2016-Apr-30 05:32N 51°58' E 004°02'0 0.0
2016-Apr-30 04:32N 51°58' E 004°02'0 0.0
2016-Apr-30 03:32N 51°58' E 004°02'0 0.0
2016-Apr-30 02:32N 51°58' E 004°02'0 0.0
2016-Apr-30 01:32N 51°58' E 004°02'0 0.0
2016-Apr-30 00:32N 51°58' E 004°02'0 0.0
2016-Apr-29 23:32N 51°58' E 004°02'0 0.0
2016-Apr-29 22:32N 51°58' E 004°02'0 0.0
2016-Apr-29 21:32N 51°58' E 004°02'0 0.0
2016-Apr-29 20:32N 51°58' E 004°02'0 0.0
2016-Apr-29 19:32N 51°58' E 004°02'0 0.0
2016-Apr-29 18:32N 51°58' E 004°02'0 0.0
2016-Apr-29 17:29N 51°58' E 004°02'0 0.0
2016-Apr-29 16:32N 51°58' E 004°02'0 0.0
2016-Apr-29 15:32N 51°58' E 004°02'0 0.0
2016-Apr-29 14:32N 51°58' E 004°02'2 1.7
2016-Apr-29 13:33N 51°58' E 004°05'1111.3
2016-Apr-29 12:33N 52°03' E 003°48'1717.4
2016-Apr-29 11:33N 52°20' E 003°48'8315.9
2016-Apr-29 06:21N 53°32' E 004°57'1417.7
2016-Apr-29 05:34N 53°37' E 005°19'1818.0
2016-Apr-29 04:34N 53°43' E 005°47'1818.4
2016-Apr-29 03:33N 53°48' E 006°17'1818.1
2016-Apr-29 02:33N 53°53' E 006°47'1817.9
2016-Apr-29 01:33N 53°58' E 007°16'1817.7
2016-Apr-29 00:34N 54°02' E 007°46'1616.3
2016-Apr-28 23:34N 54°00' E 008°13'1414.5
2016-Apr-28 22:33N 53°57' E 008°37'1616.0
2016-Apr-28 21:33N 53°52' E 009°03'4 3.9
2016-Apr-28 20:33N 53°54' E 009°09'4 4.4
2016-Apr-28 19:34N 53°57' E 009°14'6 6.2
2016-Apr-28 18:34N 54°02' E 009°18'5 4.5
2016-Apr-28 17:33N 54°07' E 009°20'6 5.5
2016-Apr-28 16:32N 54°10' E 009°27'4 3.4
2016-Apr-28 15:24N 54°12' E 009°33'5 4.6
2016-Apr-28 14:16N 54°16' E 009°38'4 5.7
2016-Apr-28 13:34N 54°19' E 009°43'2 1.7
2016-Apr-28 12:33N 54°20' E 009°45'6 5.6
2016-Apr-28 11:33N 54°21' E 009°54'6 5.8
2016-Apr-28 10:33N 54°22' E 010°04'3 2.6
2016-Apr-28 09:33N 54°22' E 010°09'2 2.5
2016-Apr-28 08:34N 54°24' E 010°12'1211.6
2016-Apr-28 07:34N 54°32' E 010°25'1616.1
2016-Apr-28 06:33N 54°35' E 010°53'1717.3
2016-Apr-28 05:33N 54°33' E 011°22'1717.3
2016-Apr-28 04:33N 54°26' E 011°50'1414.4
2016-Apr-28 03:33N 54°31' E 012°13'4915.4
2016-Apr-28 00:23N 54°56' E 013°25'1315.7
2016-Apr-27 23:33N 55°01' E 013°46'1615.6
2016-Apr-27 22:33N 55°09' E 014°10'1616.0
2016-Apr-27 21:33N 55°21' E 014°28'1616.0
2016-Apr-27 20:33N 55°31' E 014°50'1616.2
2016-Apr-27 19:33N 55°39' E 015°15'1615.9
2016-Apr-27 18:33N 55°47' E 015°39'30615.8
2016-Apr-26 23:11N 59°25' E 022°21'2616.0
2016-Apr-26 21:33N 59°35' E 023°08'1616.1
2016-Apr-26 20:33N 59°40' E 023°39'1616.0
2016-Apr-26 19:33N 59°45' E 024°09'6716.4
2016-Apr-26 15:29N 59°59' E 026°19'1516.2
2016-Apr-26 14:33N 60°00' E 026°49'1615.6
2016-Apr-26 13:33N 60°04' E 027°19'1815.9
2016-Apr-26 12:27N 60°12' E 027°51'1416.3
2016-Apr-26 11:33N 60°07' E 028°19'1615.9
2016-Apr-26 10:33N 60°03' E 028°49'1816.6
2016-Apr-26 09:27N 60°02' E 029°26'1011.1
2016-Apr-26 08:33N 59°58' E 029°45'2 2.4
2016-Apr-26 07:32N 59°56' E 029°42'0 0.0
2016-Apr-26 06:32N 59°56' E 029°42'0 0.0
2016-Apr-26 05:32N 59°56' E 029°42'0 0.0
2016-Apr-26 04:29N 59°56' E 029°42'0 0.0
2016-Apr-26 03:32N 59°56' E 029°42'0 0.0
2016-Apr-26 02:32N 59°56' E 029°42'0 0.0
2016-Apr-26 01:32N 59°56' E 029°42'0 0.0
2016-Apr-26 00:32N 59°56' E 029°42'0 0.0
2016-Apr-25 23:32N 59°56' E 029°42'0 0.0
2016-Apr-25 22:32N 59°56' E 029°42'0 0.0
2016-Apr-25 21:32N 59°56' E 029°42'0 0.0
2016-Apr-25 20:32N 59°56' E 029°42'0 0.0
2016-Apr-25 19:32N 59°56' E 029°42'0 0.0
2016-Apr-25 18:32N 59°56' E 029°42'0 0.0
2016-Apr-25 17:32N 59°56' E 029°42'0 0.0
2016-Apr-25 16:32N 59°56' E 029°42'0 0.0
2016-Apr-25 15:29N 59°56' E 029°42'0 0.0
2016-Apr-25 14:32N 59°56' E 029°42'0 0.0
2016-Apr-25 13:32N 59°56' E 029°42'0 0.0
2016-Apr-25 12:32N 59°56' E 029°42'0 0.0
2016-Apr-25 11:29N 59°56' E 029°42'0 0.0
2016-Apr-25 10:32N 59°56' E 029°42'1 1.2
2016-Apr-25 09:33N 59°57' E 029°44'2 2.1
2016-Apr-25 08:33N 59°58' E 029°47'1010.0
2016-Apr-25 07:33N 59°54' E 030°06'4 3.9
2016-Apr-25 06:32N 59°52' E 030°12'0 0.0
2016-Apr-25 05:32N 59°52' E 030°12'0 0.0
2016-Apr-25 04:29N 59°52' E 030°12'0 0.0
2016-Apr-25 03:32N 59°52' E 030°12'0 0.0
2016-Apr-25 02:32N 59°52' E 030°12'0 0.0
2016-Apr-25 01:32N 59°52' E 030°12'  
Track history (hours):
 
Tides and Currents Weather Stations Pressure Air Temp Water Temp Dewpoint Dewpoint Depression Visibility Wind Speed Wind Dir Waves Ship Positions

Fesco Vladimir

Last reported at 2016-May-05 01:21 UTC. Time now 2016-May-05 04:47 UTC.
Position N 55°45' E 015°50'.

Length 184 m; draft 10 m.

Type: Ship (hazmat cat A). MMSI: 209777000.

Date/timePositionNaut miles runAvg speedWind from/ knotsBaromVisibWave heightAir tempDewpointWater temp
2016-May-05 01:21N 55°45' E 015°50'1215.7
2016-May-05 00:33N 55°39' E 015°30'1615.7
2016-May-04 23:34N 55°31' E 015°06'1615.6
2016-May-04 22:34N 55°24' E 014°42'1615.6
2016-May-04 21:34N 55°12' E 014°25'1615.5
2016-May-04 20:34N 54°60' E 014°07'1615.9
2016-May-04 19:33N 54°55' E 013°40'1615.8
2016-May-04 18:33N 54°50' E 013°14'1616.0
2016-May-04 17:33N 54°45' E 012°48'1715.8
2016-May-04 16:30N 54°36' E 012°23'1415.0
2016-May-04 15:33N 54°25' E 012°09'1616.2
2016-May-04 14:34N 54°26' E 011°41'1616.4
2016-May-04 13:34N 54°34' E 011°16'1616.4
2016-May-04 12:33N 54°42' E 010°51'1616.0
2016-May-04 11:34N 54°58' E 010°58'1616.0
2016-May-04 10:34N 55°13' E 011°06'1615.3
2016-May-04 09:32N 55°27' E 010°55'3214.6
2016-May-04 07:21N 55°59' E 011°02'1816.0
2016-May-04 06:13N 56°14' E 011°20'2716.3
2016-May-04 04:33N 56°38' E 011°44'1515.3
2016-May-04 03:33N 56°53' E 011°48'1716.6
2016-May-04 02:34N 57°08' E 011°37'1616.3
2016-May-04 01:33N 57°24' E 011°27'1616.5
2016-May-04 00:33N 57°35' E 011°05'1616.2
2016-May-03 23:34N 57°47' E 010°45'2417.3
2016-May-03 22:10N 57°46' E 010°00'1016.5
2016-May-03 21:33N 57°44' E 009°41'12515.6
2016-May-03 13:32N 56°09' E 007°13'1716.0
2016-May-03 12:30N 55°53' E 007°03'1516.0
2016-May-03 11:33N 55°39' E 006°54'1615.8
2016-May-03 10:33N 55°24' E 006°45'1515.1
2016-May-03 09:33N 55°09' E 006°45'1515.3
2016-May-03 08:33N 54°54' E 006°50'1514.7
2016-May-03 07:34N 54°40' E 006°58'1514.8
2016-May-03 06:33N 54°28' E 007°15'1514.6
2016-May-03 05:34N 54°17' E 007°31'1414.0
2016-May-03 04:34N 54°08' E 007°49'1414.3
2016-May-03 03:34N 54°01' E 008°10'1515.1
2016-May-03 02:33N 53°58' E 008°35'1514.8
2016-May-03 01:34N 53°51' E 008°58'1514.7
2016-May-03 00:33N 53°49' E 009°22'1615.9
2016-May-02 23:34N 53°35' E 009°37'1111.3
2016-May-02 22:33N 53°32' E 009°55'0 0.3
2016-May-02 21:32N 53°32' E 009°55'0 0.0
2016-May-02 20:32N 53°32' E 009°55'0 0.0
2016-May-02 19:32N 53°32' E 009°55'0 0.0
2016-May-02 18:32N 53°32' E 009°55'0 0.0
2016-May-02 17:32N 53°32' E 009°55'0 0.0
2016-May-02 16:32N 53°32' E 009°55'0 0.0
2016-May-02 15:32N 53°32' E 009°55'0 0.0
2016-May-02 14:32N 53°32' E 009°55'0 0.0
2016-May-02 13:32N 53°32' E 009°55'0 0.0
2016-May-02 12:32N 53°32' E 009°55'0 0.0
2016-May-02 11:32N 53°32' E 009°55'0 0.0
2016-May-02 10:32N 53°32' E 009°55'0 0.0
2016-May-02 09:31N 53°32' E 009°55'0 0.0
2016-May-02 08:31N 53°32' E 009°55'0 0.0
2016-May-02 07:31N 53°32' E 009°55'0 0.0
2016-May-02 06:31N 53°32' E 009°55'0 0.0
2016-May-02 05:31N 53°32' E 009°55'1 1.5
2016-May-02 04:33N 53°32' E 009°53'1111.3
2016-May-02 03:34N 53°36' E 009°35'1414.0
2016-May-02 02:33N 53°48' E 009°23'1111.5
2016-May-02 01:33N 53°52' E 009°04'1312.7
2016-May-02 00:34N 53°52' E 008°43'1313.1
2016-May-01 23:33N 53°59' E 008°23'1312.7
2016-May-01 22:33N 53°59' E 008°02'1211.8
2016-May-01 21:33N 53°57' E 007°42'10 9.9
2016-May-01 20:33N 53°55' E 007°26'8 7.9
2016-May-01 19:33N 53°53' E 007°13'8 8.3
2016-May-01 18:33N 53°51' E 006°59'9 8.7
2016-May-01 17:33N 53°49' E 006°45'9 9.1
2016-May-01 16:33N 53°47' E 006°30'9 9.4
2016-May-01 15:33N 53°44' E 006°14'10 9.7
2016-May-01 14:33N 53°41' E 005°59'10 9.8
2016-May-01 13:33N 53°37' E 005°43'1010.0
2016-May-01 12:33N 53°34' E 005°27'1010.1
2016-May-01 11:33N 53°31' E 005°11'1010.0
2016-May-01 10:33N 53°27' E 004°55'9 9.3
2016-May-01 09:32N 53°23' E 004°42'26 8.5
2016-May-01 06:33N 53°00' E 004°23'1111.3
2016-May-01 05:33N 52°50' E 004°14'1111.5
2016-May-01 04:33N 52°40' E 004°05'1111.3
2016-May-01 03:33N 52°30' E 003°55'1111.0
2016-May-01 02:33N 52°20' E 003°52'1111.4
2016-May-01 01:33N 52°08' E 003°55'7 7.1
2016-May-01 00:33N 52°01' E 003°58'6 5.8
2016-Apr-30 23:32N 51°57' E 004°04'0 0.0
2016-Apr-30 22:32N 51°57' E 004°04'0 0.0
2016-Apr-30 21:32N 51°57' E 004°04'0 0.0
2016-Apr-30 20:32N 51°57' E 004°04'0 0.0
2016-Apr-30 19:32N 51°57' E 004°04'0 0.0
2016-Apr-30 18:32N 51°57' E 004°04'0 0.0
2016-Apr-30 17:32N 51°57' E 004°04'0 0.0
2016-Apr-30 16:32N 51°57' E 004°04'0 0.0
2016-Apr-30 15:32N 51°57' E 004°04'0 0.0
2016-Apr-30 14:32N 51°57' E 004°04'0 0.0
2016-Apr-30 13:32N 51°57' E 004°04'0 0.0
2016-Apr-30 12:32N 51°57' E 004°04'0 0.0
2016-Apr-30 11:32N 51°57' E 004°04'0 0.0
2016-Apr-30 10:32N 51°57' E 004°04'0 0.3
2016-Apr-30 09:33N 51°57' E 004°04'1 0.6
2016-Apr-30 08:31N 51°58' E 004°04'0 0.0
2016-Apr-30 07:31N 51°58' E 004°04'1 0.5
2016-Apr-30 06:33N 51°58' E 004°04'1 1.0
2016-Apr-30 05:32N 51°58' E 004°02'0 0.0
2016-Apr-30 04:32N 51°58' E 004°02'0 0.0
2016-Apr-30 03:32N 51°58' E 004°02'0 0.0
2016-Apr-30 02:32N 51°58' E 004°02'0 0.0
2016-Apr-30 01:32N 51°58' E 004°02'0 0.0
2016-Apr-30 00:32N 51°58' E 004°02'0 0.0
2016-Apr-29 23:32N 51°58' E 004°02'0 0.0
2016-Apr-29 22:32N 51°58' E 004°02'0 0.0
2016-Apr-29 21:32N 51°58' E 004°02'0 0.0
2016-Apr-29 20:32N 51°58' E 004°02'0 0.0
2016-Apr-29 19:32N 51°58' E 004°02'0 0.0
2016-Apr-29 18:32N 51°58' E 004°02'0 0.0
2016-Apr-29 17:29N 51°58' E 004°02'0 0.0
2016-Apr-29 16:32N 51°58' E 004°02'0 0.0
2016-Apr-29 15:32N 51°58' E 004°02'0 0.0
2016-Apr-29 14:32N 51°58' E 004°02'2 1.7
2016-Apr-29 13:33N 51°58' E 004°05'1111.3
2016-Apr-29 12:33N 52°03' E 003°48'1717.4
2016-Apr-29 11:33N 52°20' E 003°48'8315.9
2016-Apr-29 06:21N 53°32' E 004°57'1417.7
2016-Apr-29 05:34N 53°37' E 005°19'1818.0
2016-Apr-29 04:34N 53°43' E 005°47'1818.4
2016-Apr-29 03:33N 53°48' E 006°17'1818.1
2016-Apr-29 02:33N 53°53' E 006°47'1817.9
2016-Apr-29 01:33N 53°58' E 007°16'1817.7
2016-Apr-29 00:34N 54°02' E 007°46'1616.3
2016-Apr-28 23:34N 54°00' E 008°13'1414.5
2016-Apr-28 22:33N 53°57' E 008°37'1616.0
2016-Apr-28 21:33N 53°52' E 009°03'4 3.9
2016-Apr-28 20:33N 53°54' E 009°09'4 4.4
2016-Apr-28 19:34N 53°57' E 009°14'6 6.2
2016-Apr-28 18:34N 54°02' E 009°18'5 4.5
2016-Apr-28 17:33N 54°07' E 009°20'6 5.5
2016-Apr-28 16:32N 54°10' E 009°27'4 3.4
2016-Apr-28 15:24N 54°12' E 009°33'5 4.6
2016-Apr-28 14:16N 54°16' E 009°38'4 5.7
2016-Apr-28 13:34N 54°19' E 009°43'2 1.7
2016-Apr-28 12:33N 54°20' E 009°45'6 5.6
2016-Apr-28 11:33N 54°21' E 009°54'6 5.8
2016-Apr-28 10:33N 54°22' E 010°04'3 2.6
2016-Apr-28 09:33N 54°22' E 010°09'2 2.5
2016-Apr-28 08:34N 54°24' E 010°12'1211.6
2016-Apr-28 07:34N 54°32' E 010°25'1616.1
2016-Apr-28 06:33N 54°35' E 010°53'1717.3
2016-Apr-28 05:33N 54°33' E 011°22'1717.3
2016-Apr-28 04:33N 54°26' E 011°50'1414.4
2016-Apr-28 03:33N 54°31' E 012°13'4915.4
2016-Apr-28 00:23N 54°56' E 013°25'1315.7
2016-Apr-27 23:33N 55°01' E 013°46'1615.6
2016-Apr-27 22:33N 55°09' E 014°10'1616.0
2016-Apr-27 21:33N 55°21' E 014°28'1616.0
2016-Apr-27 20:33N 55°31' E 014°50'1616.2
2016-Apr-27 19:33N 55°39' E 015°15'1615.9
2016-Apr-27 18:33N 55°47' E 015°39'30615.8
2016-Apr-26 23:11N 59°25' E 022°21'2616.0
2016-Apr-26 21:33N 59°35' E 023°08'1616.1
2016-Apr-26 20:33N 59°40' E 023°39'1616.0
2016-Apr-26 19:33N 59°45' E 024°09'6716.4
2016-Apr-26 15:29N 59°59' E 026°19'1516.2
2016-Apr-26 14:33N 60°00' E 026°49'1615.6
2016-Apr-26 13:33N 60°04' E 027°19'1815.9
2016-Apr-26 12:27N 60°12' E 027°51'1416.3
2016-Apr-26 11:33N 60°07' E 028°19'1615.9
2016-Apr-26 10:33N 60°03' E 028°49'1816.6
2016-Apr-26 09:27N 60°02' E 029°26'1011.1
2016-Apr-26 08:33N 59°58' E 029°45'2 2.4
2016-Apr-26 07:32N 59°56' E 029°42'0 0.0
2016-Apr-26 06:32N 59°56' E 029°42'0 0.0
2016-Apr-26 05:32N 59°56' E 029°42'0 0.0
2016-Apr-26 04:29N 59°56' E 029°42'0 0.0
2016-Apr-26 03:32N 59°56' E 029°42'0 0.0
2016-Apr-26 02:32N 59°56' E 029°42'0 0.0
2016-Apr-26 01:32N 59°56' E 029°42'0 0.0
2016-Apr-26 00:32N 59°56' E 029°42'0 0.0
2016-Apr-25 23:32N 59°56' E 029°42'0 0.0
2016-Apr-25 22:32N 59°56' E 029°42'0 0.0
2016-Apr-25 21:32N 59°56' E 029°42'0 0.0
2016-Apr-25 20:32N 59°56' E 029°42'0 0.0
2016-Apr-25 19:32N 59°56' E 029°42'0 0.0
2016-Apr-25 18:32N 59°56' E 029°42'0 0.0
2016-Apr-25 17:32N 59°56' E 029°42'0 0.0
2016-Apr-25 16:32N 59°56' E 029°42'0 0.0
2016-Apr-25 15:29N 59°56' E 029°42'0 0.0
2016-Apr-25 14:32N 59°56' E 029°42'0 0.0
2016-Apr-25 13:32N 59°56' E 029°42'0 0.0
2016-Apr-25 12:32N 59°56' E 029°42'0 0.0
2016-Apr-25 11:29N 59°56' E 029°42'0 0.0
2016-Apr-25 10:32N 59°56' E 029°42'1 1.2
2016-Apr-25 09:33N 59°57' E 029°44'2 2.1
2016-Apr-25 08:33N 59°58' E 029°47'1010.0
2016-Apr-25 07:33N 59°54' E 030°06'4 3.9
2016-Apr-25 06:32N 59°52' E 030°12'0 0.0
2016-Apr-25 05:32N 59°52' E 030°12'0 0.0
2016-Apr-25 04:29N 59°52' E 030°12'0 0.0
2016-Apr-25 03:32N 59°52' E 030°12'0 0.0
2016-Apr-25 02:32N 59°52' E 030°12'0 0.0
2016-Apr-25 01:32N 59°52' E 030°12'  

Dump ship's entire track history